sensor_id;sensor_type;location;lat;lon;timestamp;P1;durP1;ratioP1;P2;durP2;ratioP2
7154;SDS011;3619;53.784;10.440;2024-01-30T00:00:36;7.87;;;7.57;;
7154;SDS011;3619;53.784;10.440;2024-01-30T00:03:05;7.43;;;7.13;;
7154;SDS011;3619;53.784;10.440;2024-01-30T00:05:32;7.20;;;6.90;;
7154;SDS011;3619;53.784;10.440;2024-01-30T00:07:59;7.63;;;7.33;;
7154;SDS011;3619;53.784;10.440;2024-01-30T00:10:28;7.30;;;7.00;;
7154;SDS011;3619;53.784;10.440;2024-01-30T00:12:56;9.30;;;9.00;;
7154;SDS011;3619;53.784;10.440;2024-01-30T00:15:22;9.90;;;9.50;;
7154;SDS011;3619;53.784;10.440;2024-01-30T00:17:49;10.33;;;9.93;;
7154;SDS011;3619;53.784;10.440;2024-01-30T00:20:19;8.30;;;8.00;;
7154;SDS011;3619;53.784;10.440;2024-01-30T00:22:47;9.43;;;9.10;;
7154;SDS011;3619;53.784;10.440;2024-01-30T00:25:13;9.80;;;9.40;;
7154;SDS011;3619;53.784;10.440;2024-01-30T00:27:40;9.37;;;9.03;;
7154;SDS011;3619;53.784;10.440;2024-01-30T00:30:07;10.17;;;9.77;;
7154;SDS011;3619;53.784;10.440;2024-01-30T00:32:35;9.17;;;8.87;;
7154;SDS011;3619;53.784;10.440;2024-01-30T00:35:02;9.07;;;8.77;;
7154;SDS011;3619;53.784;10.440;2024-01-30T00:37:31;10.07;;;9.67;;
7154;SDS011;3619;53.784;10.440;2024-01-30T00:39:58;10.47;;;10.07;;
7154;SDS011;3619;53.784;10.440;2024-01-30T00:42:25;10.17;;;9.77;;
7154;SDS011;3619;53.784;10.440;2024-01-30T00:44:52;10.77;;;10.37;;
7154;SDS011;3619;53.784;10.440;2024-01-30T00:47:18;10.27;;;9.87;;
7154;SDS011;3619;53.784;10.440;2024-01-30T00:49:45;9.73;;;9.33;;
7154;SDS011;3619;53.784;10.440;2024-01-30T00:52:12;10.93;;;10.53;;
7154;SDS011;3619;53.784;10.440;2024-01-30T00:54:41;13.13;;;12.63;;
7154;SDS011;3619;53.784;10.440;2024-01-30T00:57:08;12.87;;;12.37;;
7154;SDS011;3619;53.784;10.440;2024-01-30T00:59:35;12.33;;;11.83;;
7154;SDS011;3619;53.784;10.440;2024-01-30T01:02:02;11.37;;;10.97;;
7154;SDS011;3619;53.784;10.440;2024-01-30T01:04:29;12.67;;;12.17;;
7154;SDS011;3619;53.784;10.440;2024-01-30T01:06:56;13.80;;;13.30;;
7154;SDS011;3619;53.784;10.440;2024-01-30T01:09:24;12.90;;;12.40;;
7154;SDS011;3619;53.784;10.440;2024-01-30T01:11:53;12.53;;;12.03;;
7154;SDS011;3619;53.784;10.440;2024-01-30T01:14:21;11.03;;;10.63;;
7154;SDS011;3619;53.784;10.440;2024-01-30T01:16:48;14.03;;;13.53;;
7154;SDS011;3619;53.784;10.440;2024-01-30T01:19:15;12.20;;;11.73;;
7154;SDS011;3619;53.784;10.440;2024-01-30T01:21:43;11.60;;;11.20;;
7154;SDS011;3619;53.784;10.440;2024-01-30T01:24:10;11.87;;;11.47;;
7154;SDS011;3619;53.784;10.440;2024-01-30T01:26:37;13.57;;;13.07;;
7154;SDS011;3619;53.784;10.440;2024-01-30T01:29:05;15.40;;;14.80;;
7154;SDS011;3619;53.784;10.440;2024-01-30T01:31:35;15.70;;;15.10;;
7154;SDS011;3619;53.784;10.440;2024-01-30T01:34:05;11.80;;;11.40;;
7154;SDS011;3619;53.784;10.440;2024-01-30T01:36:31;12.73;;;12.23;;
7154;SDS011;3619;53.784;10.440;2024-01-30T01:38:58;13.23;;;12.73;;
7154;SDS011;3619;53.784;10.440;2024-01-30T01:41:25;11.93;;;11.53;;
7154;SDS011;3619;53.784;10.440;2024-01-30T01:43:57;13.13;;;12.63;;
7154;SDS011;3619;53.784;10.440;2024-01-30T01:46:26;12.93;;;12.43;;
7154;SDS011;3619;53.784;10.440;2024-01-30T01:48:53;11.97;;;11.47;;
7154;SDS011;3619;53.784;10.440;2024-01-30T01:51:21;13.10;;;12.60;;
7154;SDS011;3619;53.784;10.440;2024-01-30T01:53:49;13.77;;;13.27;;
7154;SDS011;3619;53.784;10.440;2024-01-30T01:56:16;14.60;;;14.07;;
7154;SDS011;3619;53.784;10.440;2024-01-30T01:58:43;16.90;;;16.23;;
7154;SDS011;3619;53.784;10.440;2024-01-30T02:01:12;13.23;;;12.73;;
7154;SDS011;3619;53.784;10.440;2024-01-30T02:03:42;14.47;;;13.97;;
7154;SDS011;3619;53.784;10.440;2024-01-30T02:06:09;14.60;;;14.10;;
7154;SDS011;3619;53.784;10.440;2024-01-30T02:08:36;13.87;;;13.37;;
7154;SDS011;3619;53.784;10.440;2024-01-30T02:11:03;15.30;;;14.70;;
7154;SDS011;3619;53.784;10.440;2024-01-30T02:13:30;15.30;;;14.70;;
7154;SDS011;3619;53.784;10.440;2024-01-30T02:15:57;12.37;;;11.87;;
7154;SDS011;3619;53.784;10.440;2024-01-30T02:18:24;13.70;;;13.20;;
7154;SDS011;3619;53.784;10.440;2024-01-30T02:20:54;13.53;;;13.03;;
7154;SDS011;3619;53.784;10.440;2024-01-30T02:23:28;12.47;;;11.97;;
7154;SDS011;3619;53.784;10.440;2024-01-30T02:25:55;14.93;;;14.33;;
7154;SDS011;3619;53.784;10.440;2024-01-30T02:28:22;13.30;;;12.80;;
7154;SDS011;3619;53.784;10.440;2024-01-30T02:30:48;13.93;;;13.43;;
7154;SDS011;3619;53.784;10.440;2024-01-30T02:33:15;13.40;;;12.90;;
7154;SDS011;3619;53.784;10.440;2024-01-30T02:35:44;13.17;;;12.67;;
7154;SDS011;3619;53.784;10.440;2024-01-30T02:38:11;13.67;;;13.17;;
7154;SDS011;3619;53.784;10.440;2024-01-30T02:40:39;12.93;;;12.43;;
7154;SDS011;3619;53.784;10.440;2024-01-30T02:43:06;11.47;;;11.07;;
7154;SDS011;3619;53.784;10.440;2024-01-30T02:45:33;13.03;;;12.53;;
7154;SDS011;3619;53.784;10.440;2024-01-30T02:48:00;13.83;;;13.33;;
7154;SDS011;3619;53.784;10.440;2024-01-30T02:50:27;11.17;;;10.77;;
7154;SDS011;3619;53.784;10.440;2024-01-30T02:52:54;11.00;;;10.60;;
7154;SDS011;3619;53.784;10.440;2024-01-30T02:55:20;11.53;;;11.13;;
7154;SDS011;3619;53.784;10.440;2024-01-30T02:57:49;12.60;;;12.10;;
7154;SDS011;3619;53.784;10.440;2024-01-30T03:00:15;13.53;;;13.03;;
7154;SDS011;3619;53.784;10.440;2024-01-30T03:02:42;11.07;;;10.67;;
7154;SDS011;3619;53.784;10.440;2024-01-30T03:05:09;11.73;;;11.33;;
7154;SDS011;3619;53.784;10.440;2024-01-30T03:07:36;11.17;;;10.77;;
7154;SDS011;3619;53.784;10.440;2024-01-30T03:10:03;11.50;;;11.10;;
7154;SDS011;3619;53.784;10.440;2024-01-30T03:12:31;12.00;;;11.60;;
7154;SDS011;3619;53.784;10.440;2024-01-30T03:14:59;11.93;;;11.53;;
7154;SDS011;3619;53.784;10.440;2024-01-30T03:17:26;10.10;;;9.70;;
7154;SDS011;3619;53.784;10.440;2024-01-30T03:19:53;12.33;;;11.83;;
7154;SDS011;3619;53.784;10.440;2024-01-30T03:22:20;12.43;;;11.93;;
7154;SDS011;3619;53.784;10.440;2024-01-30T03:24:46;13.30;;;12.80;;
7154;SDS011;3619;53.784;10.440;2024-01-30T03:27:13;12.13;;;11.70;;
7154;SDS011;3619;53.784;10.440;2024-01-30T03:29:40;12.00;;;11.60;;
7154;SDS011;3619;53.784;10.440;2024-01-30T03:32:08;13.20;;;12.70;;
7154;SDS011;3619;53.784;10.440;2024-01-30T03:34:35;14.10;;;13.60;;
7154;SDS011;3619;53.784;10.440;2024-01-30T03:37:02;12.70;;;12.20;;
7154;SDS011;3619;53.784;10.440;2024-01-30T03:39:29;12.83;;;12.33;;
7154;SDS011;3619;53.784;10.440;2024-01-30T03:41:56;11.27;;;10.87;;
7154;SDS011;3619;53.784;10.440;2024-01-30T03:44:23;14.57;;;14.07;;
7154;SDS011;3619;53.784;10.440;2024-01-30T03:46:50;12.40;;;11.90;;
7154;SDS011;3619;53.784;10.440;2024-01-30T03:49:18;13.07;;;12.57;;
7154;SDS011;3619;53.784;10.440;2024-01-30T03:51:45;12.43;;;11.93;;
7154;SDS011;3619;53.784;10.440;2024-01-30T03:54:12;13.67;;;13.17;;
7154;SDS011;3619;53.784;10.440;2024-01-30T03:56:39;12.87;;;12.37;;
7154;SDS011;3619;53.784;10.440;2024-01-30T03:59:06;13.93;;;13.43;;
7154;SDS011;3619;53.784;10.440;2024-01-30T04:01:33;14.67;;;14.13;;
7154;SDS011;3619;53.784;10.440;2024-01-30T04:04:00;14.87;;;14.27;;
7154;SDS011;3619;53.784;10.440;2024-01-30T04:06:28;13.80;;;13.30;;
7154;SDS011;3619;53.784;10.440;2024-01-30T04:08:55;12.47;;;11.97;;
7154;SDS011;3619;53.784;10.440;2024-01-30T04:11:22;13.77;;;13.27;;
7154;SDS011;3619;53.784;10.440;2024-01-30T04:13:49;14.03;;;13.53;;
7154;SDS011;3619;53.784;10.440;2024-01-30T04:16:22;13.17;;;12.67;;
7154;SDS011;3619;53.784;10.440;2024-01-30T04:18:49;14.07;;;13.57;;
7154;SDS011;3619;53.784;10.440;2024-01-30T04:21:15;13.87;;;13.37;;
7154;SDS011;3619;53.784;10.440;2024-01-30T04:23:44;13.47;;;12.97;;
7154;SDS011;3619;53.784;10.440;2024-01-30T04:26:10;12.90;;;12.40;;
7154;SDS011;3619;53.784;10.440;2024-01-30T04:28:37;15.17;;;14.57;;
7154;SDS011;3619;53.784;10.440;2024-01-30T04:31:04;15.37;;;14.77;;
7154;SDS011;3619;53.784;10.440;2024-01-30T04:33:31;15.53;;;14.93;;
7154;SDS011;3619;53.784;10.440;2024-01-30T04:35:58;16.03;;;15.43;;
7154;SDS011;3619;53.784;10.440;2024-01-30T04:38:24;15.13;;;14.53;;
7154;SDS011;3619;53.784;10.440;2024-01-30T04:40:53;16.47;;;15.87;;
7154;SDS011;3619;53.784;10.440;2024-01-30T04:43:20;16.70;;;16.10;;
7154;SDS011;3619;53.784;10.440;2024-01-30T04:45:46;16.40;;;15.80;;
7154;SDS011;3619;53.784;10.440;2024-01-30T04:48:15;17.23;;;16.63;;
7154;SDS011;3619;53.784;10.440;2024-01-30T04:50:42;16.90;;;16.30;;
7154;SDS011;3619;53.784;10.440;2024-01-30T04:53:08;18.70;;;18.00;;
7154;SDS011;3619;53.784;10.440;2024-01-30T04:55:36;16.87;;;16.27;;
7154;SDS011;3619;53.784;10.440;2024-01-30T04:58:05;19.57;;;18.87;;
7154;SDS011;3619;53.784;10.440;2024-01-30T05:00:32;19.20;;;18.50;;
7154;SDS011;3619;53.784;10.440;2024-01-30T05:02:58;18.23;;;17.53;;
7154;SDS011;3619;53.784;10.440;2024-01-30T05:05:25;18.13;;;17.43;;
7154;SDS011;3619;53.784;10.440;2024-01-30T05:07:52;17.27;;;16.63;;
7154;SDS011;3619;53.784;10.440;2024-01-30T05:10:19;18.23;;;17.53;;
7154;SDS011;3619;53.784;10.440;2024-01-30T05:12:46;18.33;;;17.63;;
7154;SDS011;3619;53.784;10.440;2024-01-30T05:15:14;18.90;;;18.20;;
7154;SDS011;3619;53.784;10.440;2024-01-30T05:17:41;20.43;;;19.63;;
7154;SDS011;3619;53.784;10.440;2024-01-30T05:20:09;21.00;;;20.20;;
7154;SDS011;3619;53.784;10.440;2024-01-30T05:22:37;20.80;;;20.00;;
7154;SDS011;3619;53.784;10.440;2024-01-30T05:25:09;21.30;;;20.50;;
7154;SDS011;3619;53.784;10.440;2024-01-30T05:27:36;22.43;;;21.43;;
7154;SDS011;3619;53.784;10.440;2024-01-30T05:30:04;18.60;;;17.90;;
7154;SDS011;3619;53.784;10.440;2024-01-30T05:32:33;23.83;;;22.93;;
7154;SDS011;3619;53.784;10.440;2024-01-30T05:35:00;25.10;;;23.73;;
7154;SDS011;3619;53.784;10.440;2024-01-30T05:37:28;22.53;;;21.70;;
7154;SDS011;3619;53.784;10.440;2024-01-30T05:39:55;20.77;;;19.97;;
7154;SDS011;3619;53.784;10.440;2024-01-30T05:42:22;22.13;;;21.33;;
7154;SDS011;3619;53.784;10.440;2024-01-30T05:44:49;22.70;;;21.80;;
7154;SDS011;3619;53.784;10.440;2024-01-30T05:47:16;23.80;;;22.90;;
7154;SDS011;3619;53.784;10.440;2024-01-30T05:49:44;23.97;;;23.07;;
7154;SDS011;3619;53.784;10.440;2024-01-30T05:52:12;25.80;;;24.80;;
7154;SDS011;3619;53.784;10.440;2024-01-30T05:54:40;25.07;;;24.13;;
7154;SDS011;3619;53.784;10.440;2024-01-30T05:57:07;24.40;;;23.50;;
7154;SDS011;3619;53.784;10.440;2024-01-30T05:59:34;25.27;;;24.27;;
7154;SDS011;3619;53.784;10.440;2024-01-30T06:02:01;23.83;;;22.93;;
7154;SDS011;3619;53.784;10.440;2024-01-30T06:04:28;29.27;;;28.17;;
7154;SDS011;3619;53.784;10.440;2024-01-30T06:06:56;24.63;;;23.73;;
7154;SDS011;3619;53.784;10.440;2024-01-30T06:09:26;24.93;;;24.03;;
7154;SDS011;3619;53.784;10.440;2024-01-30T06:11:53;25.70;;;24.70;;
7154;SDS011;3619;53.784;10.440;2024-01-30T06:14:20;23.87;;;22.97;;
7154;SDS011;3619;53.784;10.440;2024-01-30T06:16:48;27.90;;;26.80;;
7154;SDS011;3619;53.784;10.440;2024-01-30T06:19:15;26.80;;;25.80;;
7154;SDS011;3619;53.784;10.440;2024-01-30T06:21:42;24.60;;;23.67;;
7154;SDS011;3619;53.784;10.440;2024-01-30T06:24:11;23.57;;;22.67;;
7154;SDS011;3619;53.784;10.440;2024-01-30T06:26:38;23.47;;;22.57;;
7154;SDS011;3619;53.784;10.440;2024-01-30T06:29:06;25.30;;;24.30;;
7154;SDS011;3619;53.784;10.440;2024-01-30T06:31:39;23.93;;;23.03;;
7154;SDS011;3619;53.784;10.440;2024-01-30T06:34:16;25.20;;;24.23;;
7154;SDS011;3619;53.784;10.440;2024-01-30T06:36:45;26.80;;;25.80;;
7154;SDS011;3619;53.784;10.440;2024-01-30T06:39:17;25.57;;;24.57;;
7154;SDS011;3619;53.784;10.440;2024-01-30T06:41:45;25.53;;;24.53;;
7154;SDS011;3619;53.784;10.440;2024-01-30T06:44:12;26.37;;;25.37;;
7154;SDS011;3619;53.784;10.440;2024-01-30T06:46:39;23.53;;;22.63;;
7154;SDS011;3619;53.784;10.440;2024-01-30T06:49:19;26.37;;;25.37;;
7154;SDS011;3619;53.784;10.440;2024-01-30T06:51:50;23.83;;;22.93;;
7154;SDS011;3619;53.784;10.440;2024-01-30T06:54:18;25.83;;;24.83;;
7154;SDS011;3619;53.784;10.440;2024-01-30T06:56:45;24.47;;;23.57;;
7154;SDS011;3619;53.784;10.440;2024-01-30T06:59:12;26.77;;;25.77;;
7154;SDS011;3619;53.784;10.440;2024-01-30T07:01:39;24.93;;;24.00;;
7154;SDS011;3619;53.784;10.440;2024-01-30T07:04:06;29.10;;;28.00;;
7154;SDS011;3619;53.784;10.440;2024-01-30T07:06:33;26.57;;;25.57;;
7154;SDS011;3619;53.784;10.440;2024-01-30T07:08:59;25.03;;;24.10;;
7154;SDS011;3619;53.784;10.440;2024-01-30T07:11:27;27.37;;;26.30;;
7154;SDS011;3619;53.784;10.440;2024-01-30T07:13:54;28.03;;;26.90;;
7154;SDS011;3619;53.784;10.440;2024-01-30T07:16:21;26.90;;;25.90;;
7154;SDS011;3619;53.784;10.440;2024-01-30T07:18:48;27.37;;;26.37;;
7154;SDS011;3619;53.784;10.440;2024-01-30T07:21:15;28.07;;;26.97;;
7154;SDS011;3619;53.784;10.440;2024-01-30T07:23:43;27.93;;;26.83;;
7154;SDS011;3619;53.784;10.440;2024-01-30T07:26:10;28.53;;;27.43;;
7154;SDS011;3619;53.784;10.440;2024-01-30T07:28:40;26.00;;;25.00;;
7154;SDS011;3619;53.784;10.440;2024-01-30T07:31:07;24.13;;;23.23;;
7154;SDS011;3619;53.784;10.440;2024-01-30T07:33:33;30.00;;;28.83;;
7154;SDS011;3619;53.784;10.440;2024-01-30T07:36:01;26.10;;;25.10;;
7154;SDS011;3619;53.784;10.440;2024-01-30T07:38:28;29.27;;;28.17;;
7154;SDS011;3619;53.784;10.440;2024-01-30T07:40:58;27.57;;;26.53;;
7154;SDS011;3619;53.784;10.440;2024-01-30T07:43:25;28.77;;;27.67;;
7154;SDS011;3619;53.784;10.440;2024-01-30T07:45:53;28.33;;;27.23;;
7154;SDS011;3619;53.784;10.440;2024-01-30T07:48:20;26.20;;;25.20;;
7154;SDS011;3619;53.784;10.440;2024-01-30T07:50:47;26.07;;;25.07;;
7154;SDS011;3619;53.784;10.440;2024-01-30T07:53:14;28.10;;;27.00;;
7154;SDS011;3619;53.784;10.440;2024-01-30T07:55:41;31.50;;;30.30;;
7154;SDS011;3619;53.784;10.440;2024-01-30T07:58:11;27.63;;;26.60;;
7154;SDS011;3619;53.784;10.440;2024-01-30T08:00:38;28.97;;;27.87;;
7154;SDS011;3619;53.784;10.440;2024-01-30T08:03:06;33.60;;;32.30;;
7154;SDS011;3619;53.784;10.440;2024-01-30T08:05:33;28.50;;;27.40;;
7154;SDS011;3619;53.784;10.440;2024-01-30T08:08:00;29.63;;;28.53;;
7154;SDS011;3619;53.784;10.440;2024-01-30T08:10:27;27.30;;;26.30;;
7154;SDS011;3619;53.784;10.440;2024-01-30T08:12:54;29.13;;;28.03;;
7154;SDS011;3619;53.784;10.440;2024-01-30T08:15:21;28.67;;;27.57;;
7154;SDS011;3619;53.784;10.440;2024-01-30T08:17:51;25.80;;;24.80;;
7154;SDS011;3619;53.784;10.440;2024-01-30T08:20:22;27.63;;;26.60;;
7154;SDS011;3619;53.784;10.440;2024-01-30T08:22:49;28.43;;;27.33;;
7154;SDS011;3619;53.784;10.440;2024-01-30T08:25:15;29.50;;;28.40;;
7154;SDS011;3619;53.784;10.440;2024-01-30T08:27:42;29.10;;;28.00;;
7154;SDS011;3619;53.784;10.440;2024-01-30T08:30:10;29.67;;;28.57;;
7154;SDS011;3619;53.784;10.440;2024-01-30T08:32:37;26.70;;;25.70;;
7154;SDS011;3619;53.784;10.440;2024-01-30T08:35:04;25.87;;;24.87;;
7154;SDS011;3619;53.784;10.440;2024-01-30T08:37:33;24.57;;;23.67;;
7154;SDS011;3619;53.784;10.440;2024-01-30T08:40:00;26.47;;;25.47;;
7154;SDS011;3619;53.784;10.440;2024-01-30T08:42:27;27.80;;;26.70;;
7154;SDS011;3619;53.784;10.440;2024-01-30T08:44:54;26.97;;;25.97;;
7154;SDS011;3619;53.784;10.440;2024-01-30T08:47:21;28.33;;;27.23;;
7154;SDS011;3619;53.784;10.440;2024-01-30T08:49:48;26.97;;;25.97;;
7154;SDS011;3619;53.784;10.440;2024-01-30T08:52:14;26.50;;;25.40;;
7154;SDS011;3619;53.784;10.440;2024-01-30T08:54:43;27.43;;;26.40;;
7154;SDS011;3619;53.784;10.440;2024-01-30T08:57:09;26.70;;;25.70;;
7154;SDS011;3619;53.784;10.440;2024-01-30T08:59:36;27.57;;;26.53;;
7154;SDS011;3619;53.784;10.440;2024-01-30T09:02:03;26.03;;;25.03;;
7154;SDS011;3619;53.784;10.440;2024-01-30T09:04:30;25.20;;;24.23;;
7154;SDS011;3619;53.784;10.440;2024-01-30T09:06:57;25.17;;;24.20;;
7154;SDS011;3619;53.784;10.440;2024-01-30T09:09:24;24.63;;;23.73;;
7154;SDS011;3619;53.784;10.440;2024-01-30T09:11:52;26.73;;;25.73;;
7154;SDS011;3619;53.784;10.440;2024-01-30T09:14:19;22.60;;;21.73;;
7154;SDS011;3619;53.784;10.440;2024-01-30T09:16:46;24.07;;;23.17;;
7154;SDS011;3619;53.784;10.440;2024-01-30T09:19:14;22.83;;;21.93;;
7154;SDS011;3619;53.784;10.440;2024-01-30T09:21:41;22.47;;;21.60;;
7154;SDS011;3619;53.784;10.440;2024-01-30T09:24:07;28.10;;;26.80;;
7154;SDS011;3619;53.784;10.440;2024-01-30T09:26:34;24.33;;;23.43;;
7154;SDS011;3619;53.784;10.440;2024-01-30T09:29:02;25.97;;;24.97;;
7154;SDS011;3619;53.784;10.440;2024-01-30T09:31:29;24.10;;;23.20;;
7154;SDS011;3619;53.784;10.440;2024-01-30T09:33:56;22.63;;;21.77;;
7154;SDS011;3619;53.784;10.440;2024-01-30T09:36:23;22.73;;;21.87;;
7154;SDS011;3619;53.784;10.440;2024-01-30T09:38:50;22.37;;;21.57;;
7154;SDS011;3619;53.784;10.440;2024-01-30T09:41:17;22.27;;;21.47;;
7154;SDS011;3619;53.784;10.440;2024-01-30T09:43:47;17.00;;;16.40;;
7154;SDS011;3619;53.784;10.440;2024-01-30T09:46:16;20.30;;;19.50;;
7154;SDS011;3619;53.784;10.440;2024-01-30T09:48:46;17.27;;;16.63;;
7154;SDS011;3619;53.784;10.440;2024-01-30T09:51:14;17.37;;;16.73;;
7154;SDS011;3619;53.784;10.440;2024-01-30T09:53:42;17.20;;;16.60;;
7154;SDS011;3619;53.784;10.440;2024-01-30T09:56:09;18.53;;;17.83;;
7154;SDS011;3619;53.784;10.440;2024-01-30T09:58:36;17.10;;;16.50;;
7154;SDS011;3619;53.784;10.440;2024-01-30T10:01:05;17.77;;;17.07;;
7154;SDS011;3619;53.784;10.440;2024-01-30T10:03:33;20.30;;;19.50;;
7154;SDS011;3619;53.784;10.440;2024-01-30T10:06:00;15.93;;;15.33;;
7154;SDS011;3619;53.784;10.440;2024-01-30T10:08:27;18.30;;;17.60;;
7154;SDS011;3619;53.784;10.440;2024-01-30T10:10:55;17.13;;;16.53;;
7154;SDS011;3619;53.784;10.440;2024-01-30T10:13:22;17.00;;;16.40;;
7154;SDS011;3619;53.784;10.440;2024-01-30T10:15:50;16.23;;;15.53;;
7154;SDS011;3619;53.784;10.440;2024-01-30T10:18:17;15.23;;;14.63;;
7154;SDS011;3619;53.784;10.440;2024-01-30T10:20:46;18.67;;;17.90;;
7154;SDS011;3619;53.784;10.440;2024-01-30T10:23:13;16.07;;;15.47;;
7154;SDS011;3619;53.784;10.440;2024-01-30T10:25:39;16.73;;;16.13;;
7154;SDS011;3619;53.784;10.440;2024-01-30T10:28:09;16.87;;;16.27;;
7154;SDS011;3619;53.784;10.440;2024-01-30T10:30:35;18.00;;;17.30;;
7154;SDS011;3619;53.784;10.440;2024-01-30T10:33:03;16.23;;;15.63;;
7154;SDS011;3619;53.784;10.440;2024-01-30T10:35:30;15.00;;;14.40;;
7154;SDS011;3619;53.784;10.440;2024-01-30T10:38:00;13.50;;;13.00;;
7154;SDS011;3619;53.784;10.440;2024-01-30T10:40:28;13.90;;;13.40;;
7154;SDS011;3619;53.784;10.440;2024-01-30T10:42:55;15.53;;;14.93;;
7154;SDS011;3619;53.784;10.440;2024-01-30T10:45:22;15.50;;;14.90;;
7154;SDS011;3619;53.784;10.440;2024-01-30T10:47:53;12.83;;;12.33;;
7154;SDS011;3619;53.784;10.440;2024-01-30T10:50:23;13.97;;;13.47;;
7154;SDS011;3619;53.784;10.440;2024-01-30T10:52:51;13.93;;;13.43;;
7154;SDS011;3619;53.784;10.440;2024-01-30T10:55:20;14.33;;;13.83;;
7154;SDS011;3619;53.784;10.440;2024-01-30T10:57:49;14.20;;;13.70;;
7154;SDS011;3619;53.784;10.440;2024-01-30T11:00:16;13.70;;;13.20;;
7154;SDS011;3619;53.784;10.440;2024-01-30T11:02:47;14.03;;;13.53;;
7154;SDS011;3619;53.784;10.440;2024-01-30T11:05:14;11.20;;;10.80;;
7154;SDS011;3619;53.784;10.440;2024-01-30T11:07:50;12.53;;;12.03;;
7154;SDS011;3619;53.784;10.440;2024-01-30T11:10:17;12.07;;;11.63;;
7154;SDS011;3619;53.784;10.440;2024-01-30T11:12:45;14.10;;;13.60;;
7154;SDS011;3619;53.784;10.440;2024-01-30T11:15:14;12.03;;;11.60;;
7154;SDS011;3619;53.784;10.440;2024-01-30T11:17:42;11.80;;;11.40;;
7154;SDS011;3619;53.784;10.440;2024-01-30T11:20:11;11.37;;;10.97;;
7154;SDS011;3619;53.784;10.440;2024-01-30T11:22:40;12.40;;;11.90;;
7154;SDS011;3619;53.784;10.440;2024-01-30T11:25:11;13.50;;;13.00;;
7154;SDS011;3619;53.784;10.440;2024-01-30T11:27:38;11.33;;;10.93;;
7154;SDS011;3619;53.784;10.440;2024-01-30T11:30:20;13.63;;;13.13;;
7154;SDS011;3619;53.784;10.440;2024-01-30T11:32:57;12.67;;;12.17;;
7154;SDS011;3619;53.784;10.440;2024-01-30T11:35:25;10.93;;;10.53;;
7154;SDS011;3619;53.784;10.440;2024-01-30T11:37:54;12.30;;;11.80;;
7154;SDS011;3619;53.784;10.440;2024-01-30T11:40:23;12.47;;;11.97;;
7154;SDS011;3619;53.784;10.440;2024-01-30T11:42:52;12.37;;;11.67;;
7154;SDS011;3619;53.784;10.440;2024-01-30T11:45:22;10.77;;;10.37;;
7154;SDS011;3619;53.784;10.440;2024-01-30T11:47:49;10.60;;;10.20;;
7154;SDS011;3619;53.784;10.440;2024-01-30T11:50:16;11.70;;;11.30;;
7154;SDS011;3619;53.784;10.440;2024-01-30T11:52:43;10.57;;;10.17;;
7154;SDS011;3619;53.784;10.440;2024-01-30T11:55:10;9.40;;;9.00;;
7154;SDS011;3619;53.784;10.440;2024-01-30T11:57:38;11.13;;;10.73;;
7154;SDS011;3619;53.784;10.440;2024-01-30T12:00:06;9.90;;;9.50;;
7154;SDS011;3619;53.784;10.440;2024-01-30T12:02:41;11.57;;;11.17;;
7154;SDS011;3619;53.784;10.440;2024-01-30T12:05:09;10.10;;;9.70;;
7154;SDS011;3619;53.784;10.440;2024-01-30T12:07:36;9.33;;;9.03;;
7154;SDS011;3619;53.784;10.440;2024-01-30T12:10:03;9.90;;;9.50;;
7154;SDS011;3619;53.784;10.440;2024-01-30T12:12:33;11.20;;;10.80;;
7154;SDS011;3619;53.784;10.440;2024-01-30T12:15:01;9.27;;;8.97;;
7154;SDS011;3619;53.784;10.440;2024-01-30T12:17:28;9.33;;;9.03;;
7154;SDS011;3619;53.784;10.440;2024-01-30T12:20:04;8.30;;;8.00;;
7154;SDS011;3619;53.784;10.440;2024-01-30T12:22:31;9.70;;;9.30;;
7154;SDS011;3619;53.784;10.440;2024-01-30T12:25:01;10.00;;;9.60;;
7154;SDS011;3619;53.784;10.440;2024-01-30T12:27:29;8.73;;;8.43;;
7154;SDS011;3619;53.784;10.440;2024-01-30T12:29:56;8.60;;;8.30;;
7154;SDS011;3619;53.784;10.440;2024-01-30T12:32:24;9.33;;;9.03;;
7154;SDS011;3619;53.784;10.440;2024-01-30T12:34:54;9.53;;;9.13;;
7154;SDS011;3619;53.784;10.440;2024-01-30T12:37:29;10.67;;;10.27;;
7154;SDS011;3619;53.784;10.440;2024-01-30T12:40:01;10.67;;;10.27;;
7154;SDS011;3619;53.784;10.440;2024-01-30T12:42:34;10.43;;;10.03;;
7154;SDS011;3619;53.784;10.440;2024-01-30T12:45:01;9.80;;;9.40;;
7154;SDS011;3619;53.784;10.440;2024-01-30T12:47:30;9.43;;;9.13;;
7154;SDS011;3619;53.784;10.440;2024-01-30T12:49:57;10.07;;;9.67;;
7154;SDS011;3619;53.784;10.440;2024-01-30T12:52:25;10.73;;;10.33;;
7154;SDS011;3619;53.784;10.440;2024-01-30T12:54:54;9.37;;;9.07;;
7154;SDS011;3619;53.784;10.440;2024-01-30T12:57:21;8.73;;;8.43;;
7154;SDS011;3619;53.784;10.440;2024-01-30T12:59:48;9.37;;;9.07;;
7154;SDS011;3619;53.784;10.440;2024-01-30T13:02:17;9.73;;;9.37;;
7154;SDS011;3619;53.784;10.440;2024-01-30T13:04:44;9.27;;;8.97;;
7154;SDS011;3619;53.784;10.440;2024-01-30T13:07:11;9.00;;;8.70;;
7154;SDS011;3619;53.784;10.440;2024-01-30T13:09:39;10.87;;;10.47;;
7154;SDS011;3619;53.784;10.440;2024-01-30T13:12:07;9.77;;;9.37;;
7154;SDS011;3619;53.784;10.440;2024-01-30T13:14:34;9.97;;;9.57;;
7154;SDS011;3619;53.784;10.440;2024-01-30T13:17:01;10.27;;;9.87;;
7154;SDS011;3619;53.784;10.440;2024-01-30T13:19:28;11.07;;;10.67;;
7154;SDS011;3619;53.784;10.440;2024-01-30T13:21:56;10.60;;;10.20;;
7154;SDS011;3619;53.784;10.440;2024-01-30T13:24:23;12.67;;;12.17;;
7154;SDS011;3619;53.784;10.440;2024-01-30T13:26:50;11.50;;;11.10;;
7154;SDS011;3619;53.784;10.440;2024-01-30T13:29:18;12.00;;;11.60;;
7154;SDS011;3619;53.784;10.440;2024-01-30T13:31:45;12.27;;;11.80;;
7154;SDS011;3619;53.784;10.440;2024-01-30T13:34:12;12.87;;;12.37;;
7154;SDS011;3619;53.784;10.440;2024-01-30T13:36:41;10.90;;;10.50;;
7154;SDS011;3619;53.784;10.440;2024-01-30T13:39:08;11.93;;;11.53;;
7154;SDS011;3619;53.784;10.440;2024-01-30T13:41:37;13.23;;;12.73;;
7154;SDS011;3619;53.784;10.440;2024-01-30T13:44:04;12.97;;;12.47;;
7154;SDS011;3619;53.784;10.440;2024-01-30T13:46:33;12.73;;;12.23;;
7154;SDS011;3619;53.784;10.440;2024-01-30T13:49:00;14.20;;;13.63;;
7154;SDS011;3619;53.784;10.440;2024-01-30T13:51:28;14.30;;;13.40;;
7154;SDS011;3619;53.784;10.440;2024-01-30T13:53:55;11.27;;;10.87;;
7154;SDS011;3619;53.784;10.440;2024-01-30T13:56:22;12.60;;;12.10;;
7154;SDS011;3619;53.784;10.440;2024-01-30T13:58:50;13.60;;;13.10;;
7154;SDS011;3619;53.784;10.440;2024-01-30T14:01:17;13.77;;;13.27;;
7154;SDS011;3619;53.784;10.440;2024-01-30T14:03:45;15.57;;;14.97;;
7154;SDS011;3619;53.784;10.440;2024-01-30T14:06:18;14.53;;;14.03;;
7154;SDS011;3619;53.784;10.440;2024-01-30T14:08:45;13.27;;;12.77;;
7154;SDS011;3619;53.784;10.440;2024-01-30T14:11:12;14.20;;;13.70;;
7154;SDS011;3619;53.784;10.440;2024-01-30T14:13:40;13.60;;;13.10;;
7154;SDS011;3619;53.784;10.440;2024-01-30T14:16:07;13.17;;;12.67;;
7154;SDS011;3619;53.784;10.440;2024-01-30T14:18:34;13.40;;;12.90;;
7154;SDS011;3619;53.784;10.440;2024-01-30T14:21:03;13.77;;;13.27;;
7154;SDS011;3619;53.784;10.440;2024-01-30T14:23:30;12.93;;;12.43;;
7154;SDS011;3619;53.784;10.440;2024-01-30T14:25:59;13.57;;;13.07;;
7154;SDS011;3619;53.784;10.440;2024-01-30T14:28:26;16.73;;;15.93;;
7154;SDS011;3619;53.784;10.440;2024-01-30T14:30:53;12.43;;;11.93;;
7154;SDS011;3619;53.784;10.440;2024-01-30T14:33:20;13.17;;;12.67;;
7154;SDS011;3619;53.784;10.440;2024-01-30T14:35:46;13.40;;;12.90;;
7154;SDS011;3619;53.784;10.440;2024-01-30T14:38:17;11.97;;;11.57;;
7154;SDS011;3619;53.784;10.440;2024-01-30T14:40:44;12.23;;;11.73;;